sensor_id;sensor_type;location;lat;lon;timestamp;pressure;altitude;pressure_sealevel;temperature;humidity
62072;BME280;48031;48.542;13.232;2022-11-24T00:01:47;96549.81;;;10.60;nan
62072;BME280;48031;48.542;13.232;2022-11-24T00:05:49;96555.50;;;10.49;nan
62072;BME280;48031;48.542;13.232;2022-11-24T00:09:50;96544.94;;;10.62;nan
62072;BME280;48031;48.542;13.232;2022-11-24T00:13:53;96555.78;;;10.17;nan
62072;BME280;48031;48.542;13.232;2022-11-24T00:17:55;96552.22;;;10.11;nan
62072;BME280;48031;48.542;13.232;2022-11-24T00:21:56;96545.47;;;10.14;nan
62072;BME280;48031;48.542;13.232;2022-11-24T00:26:04;96539.78;;;10.46;nan
62072;BME280;48031;48.542;13.232;2022-11-24T00:30:06;96553.63;;;10.19;nan
62072;BME280;48031;48.542;13.232;2022-11-24T00:34:12;96553.63;;;10.44;nan
62072;BME280;48031;48.542;13.232;2022-11-24T00:38:14;96551.19;;;10.22;nan
62072;BME280;48031;48.542;13.232;2022-11-24T00:42:15;96550.84;;;9.98;nan
62072;BME280;48031;48.542;13.232;2022-11-24T00:46:17;96552.47;;;9.89;nan
62072;BME280;48031;48.542;13.232;2022-11-24T00:50:20;96557.97;;;9.32;nan
62072;BME280;48031;48.542;13.232;2022-11-24T00:54:22;96564.19;;;9.28;nan
62072;BME280;48031;48.542;13.232;2022-11-24T00:58:24;96559.97;;;9.52;nan
62072;BME280;48031;48.542;13.232;2022-11-24T01:02:26;96567.56;;;9.60;nan
62072;BME280;48031;48.542;13.232;2022-11-24T01:06:28;96569.16;;;9.46;nan
62072;BME280;48031;48.542;13.232;2022-11-24T01:10:30;96569.75;;;9.58;nan
62072;BME280;48031;48.542;13.232;2022-11-24T01:14:32;96573.44;;;9.37;nan
62072;BME280;48031;48.542;13.232;2022-11-24T01:18:34;96573.03;;;9.08;nan
62072;BME280;48031;48.542;13.232;2022-11-24T01:22:36;96580.63;;;9.73;nan
62072;BME280;48031;48.542;13.232;2022-11-24T01:26:39;96575.31;;;9.36;nan
62072;BME280;48031;48.542;13.232;2022-11-24T01:30:41;96579.47;;;9.54;nan
62072;BME280;48031;48.542;13.232;2022-11-24T01:34:43;96584.00;;;9.33;nan
62072;BME280;48031;48.542;13.232;2022-11-24T01:38:45;96583.91;;;9.90;nan
62072;BME280;48031;48.542;13.232;2022-11-24T01:42:49;96584.03;;;10.41;nan
62072;BME280;48031;48.542;13.232;2022-11-24T01:46:56;96598.09;;;10.33;nan
62072;BME280;48031;48.542;13.232;2022-11-24T01:51:06;96595.94;;;10.30;nan
62072;BME280;48031;48.542;13.232;2022-11-24T01:55:13;96598.38;;;10.21;nan
62072;BME280;48031;48.542;13.232;2022-11-24T01:59:17;96605.16;;;10.54;nan
62072;BME280;48031;48.542;13.232;2022-11-24T02:03:24;96607.63;;;10.81;nan
62072;BME280;48031;48.542;13.232;2022-11-24T02:07:28;96615.31;;;9.86;nan
62072;BME280;48031;48.542;13.232;2022-11-24T02:11:36;96612.22;;;10.80;nan
62072;BME280;48031;48.542;13.232;2022-11-24T02:15:39;96622.44;;;10.02;nan
62072;BME280;48031;48.542;13.232;2022-11-24T02:19:54;96622.22;;;11.10;nan
62072;BME280;48031;48.542;13.232;2022-11-24T02:24:00;96624.19;;;10.74;nan
62072;BME280;48031;48.542;13.232;2022-11-24T02:28:06;96619.03;;;10.63;nan
62072;BME280;48031;48.542;13.232;2022-11-24T02:32:09;96625.78;;;10.91;nan
62072;BME280;48031;48.542;13.232;2022-11-24T02:36:12;96627.94;;;10.48;nan
62072;BME280;48031;48.542;13.232;2022-11-24T02:40:15;96636.38;;;10.82;nan
62072;BME280;48031;48.542;13.232;2022-11-24T02:44:19;96637.72;;;10.95;nan
62072;BME280;48031;48.542;13.232;2022-11-24T02:48:22;96639.09;;;10.57;nan
62072;BME280;48031;48.542;13.232;2022-11-24T02:52:24;96645.06;;;10.99;nan
62072;BME280;48031;48.542;13.232;2022-11-24T02:56:26;96650.75;;;10.82;nan
62072;BME280;48031;48.542;13.232;2022-11-24T03:00:28;96649.13;;;10.97;nan
62072;BME280;48031;48.542;13.232;2022-11-24T03:04:29;96663.25;;;10.83;nan
62072;BME280;48031;48.542;13.232;2022-11-24T03:08:31;96663.22;;;10.43;nan
62072;BME280;48031;48.542;13.232;2022-11-24T03:12:33;96671.66;;;10.57;nan
62072;BME280;48031;48.542;13.232;2022-11-24T03:16:35;96670.03;;;10.56;nan
62072;BME280;48031;48.542;13.232;2022-11-24T03:20:36;96680.63;;;10.57;nan
62072;BME280;48031;48.542;13.232;2022-11-24T03:24:38;96691.47;;;10.77;nan
62072;BME280;48031;48.542;13.232;2022-11-24T03:28:40;96697.19;;;11.06;nan
62072;BME280;48031;48.542;13.232;2022-11-24T03:32:42;96705.88;;;11.13;nan
62072;BME280;48031;48.542;13.232;2022-11-24T03:36:44;96710.78;;;10.96;nan
62072;BME280;48031;48.542;13.232;2022-11-24T03:40:46;96707.50;;;11.04;nan
62072;BME280;48031;48.542;13.232;2022-11-24T03:44:47;96714.56;;;10.95;nan
62072;BME280;48031;48.542;13.232;2022-11-24T03:48:49;96720.81;;;11.21;nan
62072;BME280;48031;48.542;13.232;2022-11-24T03:52:51;96722.97;;;10.78;nan
62072;BME280;48031;48.542;13.232;2022-11-24T03:56:53;96726.78;;;10.93;nan
62072;BME280;48031;48.542;13.232;2022-11-24T04:00:55;96739.56;;;10.97;nan
62072;BME280;48031;48.542;13.232;2022-11-24T04:04:57;96743.09;;;11.23;nan
62072;BME280;48031;48.542;13.232;2022-11-24T04:08:59;96744.16;;;11.42;nan
62072;BME280;48031;48.542;13.232;2022-11-24T04:13:02;96734.38;;;11.21;nan
62072;BME280;48031;48.542;13.232;2022-11-24T04:17:04;96738.41;;;11.54;nan
62072;BME280;48031;48.542;13.232;2022-11-24T04:21:06;96762.09;;;11.03;nan
62072;BME280;48031;48.542;13.232;2022-11-24T04:25:08;96750.09;;;11.54;nan
62072;BME280;48031;48.542;13.232;2022-11-24T04:29:11;96769.44;;;11.07;nan
62072;BME280;48031;48.542;13.232;2022-11-24T04:33:12;96781.75;;;10.42;nan
62072;BME280;48031;48.542;13.232;2022-11-24T04:37:14;96777.47;;;10.52;nan
62072;BME280;48031;48.542;13.232;2022-11-24T04:41:16;96784.09;;;11.11;nan
62072;BME280;48031;48.542;13.232;2022-11-24T04:45:18;96780.22;;;10.77;nan
62072;BME280;48031;48.542;13.232;2022-11-24T04:49:20;96794.41;;;11.04;nan
62072;BME280;48031;48.542;13.232;2022-11-24T04:53:22;96789.25;;;10.98;nan
62072;BME280;48031;48.542;13.232;2022-11-24T04:57:25;96783.31;;;11.31;nan
62072;BME280;48031;48.542;13.232;2022-11-24T05:01:27;96788.56;;;10.45;nan
62072;BME280;48031;48.542;13.232;2022-11-24T05:05:29;96787.06;;;11.15;nan
62072;BME280;48031;48.542;13.232;2022-11-24T05:09:31;96783.56;;;11.40;nan
62072;BME280;48031;48.542;13.232;2022-11-24T05:13:53;96789.78;;;11.55;nan
62072;BME280;48031;48.542;13.232;2022-11-24T05:17:55;96797.41;;;11.43;nan
62072;BME280;48031;48.542;13.232;2022-11-24T05:21:57;96799.31;;;11.58;nan
62072;BME280;48031;48.542;13.232;2022-11-24T05:26:00;96809.63;;;11.56;nan
62072;BME280;48031;48.542;13.232;2022-11-24T05:30:02;96812.06;;;11.37;nan
62072;BME280;48031;48.542;13.232;2022-11-24T05:34:04;96825.91;;;11.10;nan
62072;BME280;48031;48.542;13.232;2022-11-24T05:38:06;96817.50;;;11.32;nan
62072;BME280;48031;48.542;13.232;2022-11-24T05:42:08;96822.63;;;10.98;nan
62072;BME280;48031;48.542;13.232;2022-11-24T05:46:29;96818.56;;;11.06;nan
62072;BME280;48031;48.542;13.232;2022-11-24T05:50:31;96829.44;;;11.21;nan
62072;BME280;48031;48.542;13.232;2022-11-24T05:54:33;96828.94;;;11.14;nan
62072;BME280;48031;48.542;13.232;2022-11-24T05:58:35;96829.47;;;11.26;nan
62072;BME280;48031;48.542;13.232;2022-11-24T06:02:37;96847.94;;;11.14;nan
62072;BME280;48031;48.542;13.232;2022-11-24T06:06:39;96854.66;;;10.91;nan
62072;BME280;48031;48.542;13.232;2022-11-24T06:10:41;96843.06;;;11.46;nan
62072;BME280;48031;48.542;13.232;2022-11-24T06:14:42;96854.72;;;11.26;nan
62072;BME280;48031;48.542;13.232;2022-11-24T06:18:44;96858.56;;;11.36;nan
62072;BME280;48031;48.542;13.232;2022-11-24T06:22:46;96855.56;;;12.08;nan
62072;BME280;48031;48.542;13.232;2022-11-24T06:26:48;96862.91;;;11.52;nan
62072;BME280;48031;48.542;13.232;2022-11-24T06:30:50;96865.34;;;11.28;nan
62072;BME280;48031;48.542;13.232;2022-11-24T06:34:52;96864.75;;;11.21;nan
62072;BME280;48031;48.542;13.232;2022-11-24T06:38:54;96879.22;;;11.57;nan
62072;BME280;48031;48.542;13.232;2022-11-24T06:42:56;96884.91;;;11.30;nan
62072;BME280;48031;48.542;13.232;2022-11-24T06:46:58;96899.53;;;11.09;nan
62072;BME280;48031;48.542;13.232;2022-11-24T06:51:02;96897.31;;;11.01;nan
62072;BME280;48031;48.542;13.232;2022-11-24T06:55:05;96891.97;;;11.31;nan
62072;BME280;48031;48.542;13.232;2022-11-24T06:59:15;96909.97;;;11.78;nan
62072;BME280;48031;48.542;13.232;2022-11-24T07:03:18;96915.25;;;11.07;nan
62072;BME280;48031;48.542;13.232;2022-11-24T07:07:20;96910.47;;;10.62;nan
62072;BME280;48031;48.542;13.232;2022-11-24T07:11:22;96917.38;;;10.95;nan
62072;BME280;48031;48.542;13.232;2022-11-24T07:15:24;96927.59;;;11.50;nan
62072;BME280;48031;48.542;13.232;2022-11-24T07:19:28;96943.06;;;11.49;nan
62072;BME280;48031;48.542;13.232;2022-11-24T07:23:30;96951.16;;;11.14;nan
62072;BME280;48031;48.542;13.232;2022-11-24T07:27:32;96955.53;;;11.20;nan
62072;BME280;48031;48.542;13.232;2022-11-24T07:31:34;96953.91;;;11.34;nan
62072;BME280;48031;48.542;13.232;2022-11-24T07:35:36;96949.06;;;11.41;nan
62072;BME280;48031;48.542;13.232;2022-11-24T07:39:37;96951.88;;;11.87;nan
62072;BME280;48031;48.542;13.232;2022-11-24T07:43:39;96966.00;;;12.24;nan
62072;BME280;48031;48.542;13.232;2022-11-24T07:47:41;96968.75;;;12.09;nan
62072;BME280;48031;48.542;13.232;2022-11-24T07:51:43;96972.97;;;11.54;nan
62072;BME280;48031;48.542;13.232;2022-11-24T07:55:55;96962.16;;;12.45;nan
62072;BME280;48031;48.542;13.232;2022-11-24T07:59:58;96976.34;;;11.97;nan
62072;BME280;48031;48.542;13.232;2022-11-24T08:04:00;96965.19;;;12.19;nan
62072;BME280;48031;48.542;13.232;2022-11-24T08:08:02;96976.31;;;12.37;nan
62072;BME280;48031;48.542;13.232;2022-11-24T08:12:04;96985.56;;;12.57;nan
62072;BME280;48031;48.542;13.232;2022-11-24T08:16:11;96975.97;;;12.79;nan
62072;BME280;48031;48.542;13.232;2022-11-24T08:20:13;96977.94;;;12.59;nan
62072;BME280;48031;48.542;13.232;2022-11-24T08:24:15;96984.47;;;12.37;nan
62072;BME280;48031;48.542;13.232;2022-11-24T08:28:17;96974.09;;;12.75;nan
62072;BME280;48031;48.542;13.232;2022-11-24T08:32:19;96976.88;;;12.29;nan
62072;BME280;48031;48.542;13.232;2022-11-24T08:36:23;96977.38;;;12.67;nan
62072;BME280;48031;48.542;13.232;2022-11-24T08:40:24;96983.66;;;12.32;nan
62072;BME280;48031;48.542;13.232;2022-11-24T08:44:26;96989.38;;;12.50;nan
62072;BME280;48031;48.542;13.232;2022-11-24T08:48:29;96979.75;;;12.88;nan
62072;BME280;48031;48.542;13.232;2022-11-24T08:52:31;96975.41;;;12.93;nan
62072;BME280;48031;48.542;13.232;2022-11-24T08:56:33;96974.38;;;12.68;nan
62072;BME280;48031;48.542;13.232;2022-11-24T09:00:34;96974.56;;;12.97;nan
62072;BME280;48031;48.542;13.232;2022-11-24T09:04:36;96967.53;;;12.86;nan
62072;BME280;48031;48.542;13.232;2022-11-24T09:08:38;96958.50;;;13.55;nan
62072;BME280;48031;48.542;13.232;2022-11-24T09:12:43;96967.97;;;14.45;nan
62072;BME280;48031;48.542;13.232;2022-11-24T09:16:44;96967.78;;;13.98;nan
62072;BME280;48031;48.542;13.232;2022-11-24T09:20:46;96981.06;;;14.48;nan
62072;BME280;48031;48.542;13.232;2022-11-24T09:24:48;96976.13;;;14.11;nan
62072;BME280;48031;48.542;13.232;2022-11-24T09:28:50;96976.38;;;13.81;nan
62072;BME280;48031;48.542;13.232;2022-11-24T09:32:55;96977.25;;;14.73;nan
62072;BME280;48031;48.542;13.232;2022-11-24T09:36:57;96977.22;;;14.10;nan
62072;BME280;48031;48.542;13.232;2022-11-24T09:41:26;96977.75;;;15.70;nan
62072;BME280;48031;48.542;13.232;2022-11-24T09:45:46;96988.31;;;15.58;nan
62072;BME280;48031;48.542;13.232;2022-11-24T09:54:15;96980.84;;;16.20;nan
62072;BME280;48031;48.542;13.232;2022-11-24T09:58:39;96980.53;;;16.54;nan
62072;BME280;48031;48.542;13.232;2022-11-24T10:02:44;96987.81;;;15.51;nan
62072;BME280;48031;48.542;13.232;2022-11-24T10:11:12;96996.38;;;15.68;nan
62072;BME280;48031;48.542;13.232;2022-11-24T10:15:37;96987.13;;;16.20;nan
62072;BME280;48031;48.542;13.232;2022-11-24T10:20:07;96980.34;;;17.24;nan
62072;BME280;48031;48.542;13.232;2022-11-24T10:28:52;96988.63;;;16.78;nan
62072;BME280;48031;48.542;13.232;2022-11-24T10:33:00;96985.50;;;16.84;nan
62072;BME280;48031;48.542;13.232;2022-11-24T10:45:46;97004.16;;;15.80;nan
62072;BME280;48031;48.542;13.232;2022-11-24T10:54:04;97003.81;;;15.39;nan
62072;BME280;48031;48.542;13.232;2022-11-24T10:58:14;97003.16;;;15.52;nan
62072;BME280;48031;48.542;13.232;2022-11-24T11:02:34;97003.34;;;15.79;nan
62072;BME280;48031;48.542;13.232;2022-11-24T11:06:37;97014.00;;;14.86;nan
62072;BME280;48031;48.542;13.232;2022-11-24T11:10:40;97009.91;;;15.36;nan
62072;BME280;48031;48.542;13.232;2022-11-24T11:14:41;97001.63;;;15.65;nan
62072;BME280;48031;48.542;13.232;2022-11-24T11:18:46;96994.88;;;17.11;nan
62072;BME280;48031;48.542;13.232;2022-11-24T11:22:49;96988.53;;;16.18;nan
62072;BME280;48031;48.542;13.232;2022-11-24T11:27:01;96984.06;;;18.18;nan
62072;BME280;48031;48.542;13.232;2022-11-24T11:31:04;96980.91;;;16.80;nan
62072;BME280;48031;48.542;13.232;2022-11-24T11:35:18;96985.69;;;16.74;nan
62072;BME280;48031;48.542;13.232;2022-11-24T11:39:22;96981.94;;;18.15;nan
62072;BME280;48031;48.542;13.232;2022-11-24T11:43:37;96978.56;;;18.41;nan
62072;BME280;48031;48.542;13.232;2022-11-24T11:56:24;96979.41;;;17.01;nan
62072;BME280;48031;48.542;13.232;2022-11-24T12:00:28;96978.38;;;16.00;nan
62072;BME280;48031;48.542;13.232;2022-11-24T12:13:29;96991.94;;;15.91;nan
62072;BME280;48031;48.542;13.232;2022-11-24T12:17:41;96965.47;;;15.87;nan
62072;BME280;48031;48.542;13.232;2022-11-24T12:22:06;96981.16;;;15.81;nan
62072;BME280;48031;48.542;13.232;2022-11-24T12:30:41;96970.44;;;16.68;nan
62072;BME280;48031;48.542;13.232;2022-11-24T12:43:18;96973.31;;;15.74;nan
62072;BME280;48031;48.542;13.232;2022-11-24T12:52:03;96979.69;;;15.46;nan
62072;BME280;48031;48.542;13.232;2022-11-24T12:56:08;96998.66;;;14.61;nan
62072;BME280;48031;48.542;13.232;2022-11-24T13:00:51;97001.69;;;13.43;nan
62072;BME280;48031;48.542;13.232;2022-11-24T13:05:03;97014.38;;;13.62;nan
62072;BME280;48031;48.542;13.232;2022-11-24T13:09:12;97026.44;;;13.51;nan
62072;BME280;48031;48.542;13.232;2022-11-24T13:13:14;97039.69;;;13.73;nan
62072;BME280;48031;48.542;13.232;2022-11-24T13:17:29;97036.66;;;13.80;nan
62072;BME280;48031;48.542;13.232;2022-11-24T13:26:30;97048.13;;;13.71;nan
62072;BME280;48031;48.542;13.232;2022-11-24T13:51:38;97086.78;;;12.08;nan
62072;BME280;48031;48.542;13.232;2022-11-24T13:55:53;97080.44;;;11.77;nan
62072;BME280;48031;48.542;13.232;2022-11-24T14:00:00;97083.78;;;10.85;nan
62072;BME280;48031;48.542;13.232;2022-11-24T14:08:36;97085.44;;;10.22;nan
62072;BME280;48031;48.542;13.232;2022-11-24T14:12:38;97098.84;;;9.80;nan
62072;BME280;48031;48.542;13.232;2022-11-24T14:16:40;97109.34;;;9.77;nan
62072;BME280;48031;48.542;13.232;2022-11-24T14:20:42;97106.53;;;9.67;nan
62072;BME280;48031;48.542;13.232;2022-11-24T14:24:44;97109.06;;;9.73;nan
62072;BME280;48031;48.542;13.232;2022-11-24T14:28:52;97107.75;;;10.02;nan
62072;BME280;48031;48.542;13.232;2022-11-24T14:32:59;97113.19;;;10.29;nan
62072;BME280;48031;48.542;13.232;2022-11-24T14:37:01;97120.16;;;9.98;nan
62072;BME280;48031;48.542;13.232;2022-11-24T14:41:21;97123.88;;;10.41;nan
62072;BME280;48031;48.542;13.232;2022-11-24T14:45:26;97135.09;;;10.23;nan
62072;BME280;48031;48.542;13.232;2022-11-24T14:49:29;97124.66;;;10.36;nan
62072;BME280;48031;48.542;13.232;2022-11-24T14:53:33;97128.75;;;10.39;nan
62072;BME280;48031;48.542;13.232;2022-11-24T14:57:36;97135.84;;;10.45;nan
62072;BME280;48031;48.542;13.232;2022-11-24T15:01:38;97140.84;;;10.05;nan
62072;BME280;48031;48.542;13.232;2022-11-24T15:05:55;97136.50;;;10.57;nan
62072;BME280;48031;48.542;13.232;2022-11-24T15:10:00;97140.22;;;10.19;nan
62072;BME280;48031;48.542;13.232;2022-11-24T15:14:02;97152.53;;;9.83;nan
62072;BME280;48031;48.542;13.232;2022-11-24T15:18:05;97141.69;;;10.10;nan
62072;BME280;48031;48.542;13.232;2022-11-24T15:22:26;97139.41;;;10.19;nan
62072;BME280;48031;48.542;13.232;2022-11-24T15:26:30;97146.94;;;9.68;nan
62072;BME280;48031;48.542;13.232;2022-11-24T15:30:40;97156.09;;;9.24;nan
62072;BME280;48031;48.542;13.232;2022-11-24T15:34:43;97159.63;;;9.24;nan
62072;BME280;48031;48.542;13.232;2022-11-24T15:38:44;97160.00;;;8.94;nan
62072;BME280;48031;48.542;13.232;2022-11-24T15:42:53;97176.59;;;9.19;nan
62072;BME280;48031;48.542;13.232;2022-11-24T15:46:55;97176.81;;;8.63;nan
62072;BME280;48031;48.542;13.232;2022-11-24T15:50:59;97181.13;;;8.64;nan
62072;BME280;48031;48.542;13.232;2022-11-24T15:55:02;97190.13;;;8.53;nan
62072;BME280;48031;48.542;13.232;2022-11-24T15:59:04;97195.38;;;8.43;nan
62072;BME280;48031;48.542;13.232;2022-11-24T16:03:06;97200.16;;;8.52;nan
62072;BME280;48031;48.542;13.232;2022-11-24T16:07:27;97206.94;;;8.38;nan
62072;BME280;48031;48.542;13.232;2022-11-24T16:11:29;97213.94;;;8.51;nan
62072;BME280;48031;48.542;13.232;2022-11-24T16:15:31;97226.22;;;8.58;nan
62072;BME280;48031;48.542;13.232;2022-11-24T16:19:33;97232.44;;;8.59;nan
62072;BME280;48031;48.542;13.232;2022-11-24T16:23:42;97230.16;;;8.51;nan
62072;BME280;48031;48.542;13.232;2022-11-24T16:27:43;97233.28;;;8.59;nan
62072;BME280;48031;48.542;13.232;2022-11-24T16:31:45;97232.09;;;8.39;nan
62072;BME280;48031;48.542;13.232;2022-11-24T16:35:48;97240.78;;;8.41;nan
62072;BME280;48031;48.542;13.232;2022-11-24T16:39:50;97245.72;;;8.44;nan
62072;BME280;48031;48.542;13.232;2022-11-24T16:43:51;97250.38;;;8.48;nan
62072;BME280;48031;48.542;13.232;2022-11-24T16:47:54;97252.47;;;8.58;nan
62072;BME280;48031;48.542;13.232;2022-11-24T16:51:55;97259.22;;;8.72;nan
62072;BME280;48031;48.542;13.232;2022-11-24T16:55:57;97257.72;;;8.64;nan
62072;BME280;48031;48.542;13.232;2022-11-24T16:59:59;97263.28;;;8.58;nan
62072;BME280;48031;48.542;13.232;2022-11-24T17:04:01;97262.06;;;8.65;nan
62072;BME280;48031;48.542;13.232;2022-11-24T17:08:03;97260.63;;;8.74;nan
62072;BME280;48031;48.542;13.232;2022-11-24T17:12:04;97275.34;;;8.67;nan
62072;BME280;48031;48.542;13.232;2022-11-24T17:16:08;97269.06;;;8.78;nan
62072;BME280;48031;48.542;13.232;2022-11-24T17:20:11;97270.31;;;8.59;nan
62072;BME280;48031;48.542;13.232;2022-11-24T17:24:13;97269.00;;;8.45;nan
62072;BME280;48031;48.542;13.232;2022-11-24T17:28:18;97277.47;;;8.37;nan
62072;BME280;48031;48.542;13.232;2022-11-24T17:32:20;97288.25;;;8.48;nan
62072;BME280;48031;48.542;13.232;2022-11-24T17:36:22;97290.00;;;8.54;nan
62072;BME280;48031;48.542;13.232;2022-11-24T17:40:24;97302.13;;;8.52;nan
62072;BME280;48031;48.542;13.232;2022-11-24T17:44:29;97297.03;;;8.55;nan
62072;BME280;48031;48.542;13.232;2022-11-24T17:48:33;97301.72;;;8.88;nan
62072;BME280;48031;48.542;13.232;2022-11-24T17:52:35;97298.34;;;8.53;nan
62072;BME280;48031;48.542;13.232;2022-11-24T17:56:37;97302.25;;;8.45;nan
62072;BME280;48031;48.542;13.232;2022-11-24T18:00:41;97294.78;;;8.36;nan
62072;BME280;48031;48.542;13.232;2022-11-24T18:04:42;97293.38;;;8.21;nan
62072;BME280;48031;48.542;13.232;2022-11-24T18:08:45;97298.75;;;8.45;nan
62072;BME280;48031;48.542;13.232;2022-11-24T18:12:47;97305.00;;;8.33;nan
62072;BME280;48031;48.542;13.232;2022-11-24T18:16:49;97311.56;;;8.38;nan
62072;BME280;48031;48.542;13.232;2022-11-24T18:20:58;97306.66;;;8.91;nan
62072;BME280;48031;48.542;13.232;2022-11-24T18:25:00;97317.50;;;8.63;nan
62072;BME280;48031;48.542;13.232;2022-11-24T18:29:03;97315.84;;;8.90;nan
62072;BME280;48031;48.542;13.232;2022-11-24T18:33:04;97318.59;;;8.79;nan
62072;BME280;48031;48.542;13.232;2022-11-24T18:37:06;97306.31;;;9.04;nan
62072;BME280;48031;48.542;13.232;2022-11-24T18:41:11;97306.25;;;9.33;nan
62072;BME280;48031;48.542;13.232;2022-11-24T18:45:13;97319.22;;;9.14;nan
62072;BME280;48031;48.542;13.232;2022-11-24T18:49:15;97317.13;;;8.88;nan
62072;BME280;48031;48.542;13.232;2022-11-24T18:53:18;97314.13;;;9.17;nan
62072;BME280;48031;48.542;13.232;2022-11-24T18:57:19;97304.03;;;8.96;nan
62072;BME280;48031;48.542;13.232;2022-11-24T19:01:26;97305.78;;;9.36;nan
62072;BME280;48031;48.542;13.232;2022-11-24T19:05:28;97309.78;;;9.16;nan
62072;BME280;48031;48.542;13.232;2022-11-24T19:09:30;97316.19;;;9.10;nan
62072;BME280;48031;48.542;13.232;2022-11-24T19:13:32;97322.34;;;9.23;nan
62072;BME280;48031;48.542;13.232;2022-11-24T19:17:34;97319.81;;;9.33;nan
62072;BME280;48031;48.542;13.232;2022-11-24T19:21:37;97330.28;;;9.79;nan
62072;BME280;48031;48.542;13.232;2022-11-24T19:25:39;97322.13;;;9.41;nan
62072;BME280;48031;48.542;13.232;2022-11-24T19:29:42;97324.97;;;9.51;nan
62072;BME280;48031;48.542;13.232;2022-11-24T19:33:44;97326.34;;;9.37;nan
62072;BME280;48031;48.542;13.232;2022-11-24T19:37:46;97327.53;;;9.24;nan
62072;BME280;48031;48.542;13.232;2022-11-24T19:41:48;97335.91;;;9.39;nan
62072;BME280;48031;48.542;13.232;2022-11-24T19:45:49;97337.84;;;9.44;nan
62072;BME280;48031;48.542;13.232;2022-11-24T19:49:51;97333.84;;;9.46;nan
62072;BME280;48031;48.542;13.232;2022-11-24T19:53:53;97337.03;;;9.60;nan
62072;BME280;48031;48.542;13.232;2022-11-24T19:57:55;97328.34;;;9.41;nan
62072;BME280;48031;48.542;13.232;2022-11-24T20:01:56;97337.28;;;9.58;nan
62072;BME280;48031;48.542;13.232;2022-11-24T20:05:58;97348.22;;;9.47;nan
62072;BME280;48031;48.542;13.232;2022-11-24T20:10:00;97350.41;;;9.67;nan
62072;BME280;48031;48.542;13.232;2022-11-24T20:14:13;97345.94;;;9.94;nan
62072;BME280;48031;48.542;13.232;2022-11-24T20:18:15;97351.00;;;9.52;nan
62072;BME280;48031;48.542;13.232;2022-11-24T20:22:17;97354.88;;;9.56;nan
62072;BME280;48031;48.542;13.232;2022-11-24T20:26:20;97362.16;;;9.72;nan
62072;BME280;48031;48.542;13.232;2022-11-24T20:30:25;97357.88;;;9.59;nan
62072;BME280;48031;48.542;13.232;2022-11-24T20:34:27;97371.84;;;9.51;nan
62072;BME280;48031;48.542;13.232;2022-11-24T20:38:29;97375.63;;;9.67;nan
62072;BME280;48031;48.542;13.232;2022-11-24T20:42:31;97358.88;;;9.53;nan
62072;BME280;48031;48.542;13.232;2022-11-24T20:46:35;97356.75;;;9.72;nan
62072;BME280;48031;48.542;13.232;2022-11-24T20:50:37;97364.28;;;9.70;nan
62072;BME280;48031;48.542;13.232;2022-11-24T20:54:38;97363.72;;;9.68;nan
62072;BME280;48031;48.542;13.232;2022-11-24T20:58:40;97354.97;;;9.99;nan
62072;BME280;48031;48.542;13.232;2022-11-24T21:02:42;97367.41;;;9.95;nan
62072;BME280;48031;48.542;13.232;2022-11-24T21:06:44;97357.69;;;9.99;nan
62072;BME280;48031;48.542;13.232;2022-11-24T21:10:53;97364.78;;;10.39;nan
62072;BME280;48031;48.542;13.232;2022-11-24T21:14:56;97375.19;;;9.75;nan
62072;BME280;48031;48.542;13.232;2022-11-24T21:19:00;97367.19;;;10.35;nan
62072;BME280;48031;48.542;13.232;2022-11-24T21:23:02;97369.50;;;10.10;nan
62072;BME280;48031;48.542;13.232;2022-11-24T21:27:05;97373.09;;;10.16;nan
62072;BME280;48031;48.542;13.232;2022-11-24T21:31:18;97374.19;;;10.75;nan
62072;BME280;48031;48.542;13.232;2022-11-24T21:35:20;97374.03;;;10.43;nan
62072;BME280;48031;48.542;13.232;2022-11-24T21:39:22;97375.25;;;10.30;nan
62072;BME280;48031;48.542;13.232;2022-11-24T21:43:24;97382.50;;;10.25;nan
62072;BME280;48031;48.542;13.232;2022-11-24T21:47:25;97374.03;;;10.21;nan
62072;BME280;48031;48.542;13.232;2022-11-24T21:51:27;97375.16;;;10.09;nan
62072;BME280;48031;48.542;13.232;2022-11-24T21:55:29;97381.50;;;9.97;nan
62072;BME280;48031;48.542;13.232;2022-11-24T21:59:31;97375.09;;;10.03;nan
62072;BME280;48031;48.542;13.232;2022-11-24T22:03:33;97384.41;;;9.91;nan
62072;BME280;48031;48.542;13.232;2022-11-24T22:07:35;97392.47;;;9.86;nan
62072;BME280;48031;48.542;13.232;2022-11-24T22:11:36;97384.91;;;9.88;nan
62072;BME280;48031;48.542;13.232;2022-11-24T22:15:38;97392.56;;;9.74;nan
62072;BME280;48031;48.542;13.232;2022-11-24T22:19:40;97386.53;;;9.39;nan
62072;BME280;48031;48.542;13.232;2022-11-24T22:23:42;97391.06;;;9.50;nan
62072;BME280;48031;48.542;13.232;2022-11-24T22:27:44;97384.75;;;8.99;nan
62072;BME280;48031;48.542;13.232;2022-11-24T22:31:46;97392.94;;;8.76;nan
62072;BME280;48031;48.542;13.232;2022-11-24T22:35:58;97384.91;;;9.09;nan
62072;BME280;48031;48.542;13.232;2022-11-24T22:40:00;97395.94;;;8.63;nan
62072;BME280;48031;48.542;13.232;2022-11-24T22:44:02;97398.56;;;8.46;nan
62072;BME280;48031;48.542;13.232;2022-11-24T22:48:03;97402.78;;;8.42;nan
62072;BME280;48031;48.542;13.232;2022-11-24T22:52:05;97402.78;;;8.54;nan
62072;BME280;48031;48.542;13.232;2022-11-24T22:56:09;97408.50;;;8.97;nan
62072;BME280;48031;48.542;13.232;2022-11-24T23:00:12;97406.47;;;8.76;nan
62072;BME280;48031;48.542;13.232;2022-11-24T23:04:14;97416.19;;;8.60;nan
62072;BME280;48031;48.542;13.232;2022-11-24T23:08:15;97426.34;;;8.82;nan
62072;BME280;48031;48.542;13.232;2022-11-24T23:12:17;97421.06;;;8.75;nan
62072;BME280;48031;48.542;13.232;2022-11-24T23:16:19;97414.41;;;8.94;nan
62072;BME280;48031;48.542;13.232;2022-11-24T23:20:21;97414.22;;;8.84;nan
62072;BME280;48031;48.542;13.232;2022-11-24T23:24:23;97421.59;;;9.00;nan
62072;BME280;48031;48.542;13.232;2022-11-24T23:28:25;97412.88;;;8.98;nan